Terminal Aerodrome Forecast
Issued by NWS

Home | Current Version | Previous Version | Text Only | Print | Product List | Glossary On
Versions: 1 2 3 4 5 6 7 8 9 10 11 12 13 14 15
707
FTUS42 TJSJ 301725
TAFJSJ
TAF
TJSJ 301725Z 3018/0118 11008KT P6SM VCSH SCT025 BKN040 OVC090
      TEMPO 3019/3023 VRB14G19KT 3SM SHRA BKN025 OVC050
     FM302330 12005KT P6SM -RA SCT025 BKN070 BKN100=

USA.gov is the U.S. government's official web portal to all federal, state and local government web resources and services.